createdAt,value
2023-03-12T00:01:33.416Z,5.35
2023-03-12T00:04:03.418Z,4.57
2023-03-12T00:06:31.003Z,5.22
2023-03-12T00:09:04.070Z,4.60
2023-03-12T00:11:35.560Z,4.22
2023-03-12T00:14:03.216Z,4.68
2023-03-12T00:16:30.785Z,4.95
2023-03-12T00:18:58.307Z,5.03
2023-03-12T00:21:30.912Z,4.45
2023-03-12T00:24:01.726Z,4.32
2023-03-12T00:29:00.751Z,4.07
2023-03-12T00:31:32.327Z,3.78
2023-03-12T00:34:06.149Z,3.55
2023-03-12T00:36:33.705Z,4.18
2023-03-12T00:39:01.672Z,4.18
2023-03-12T00:41:36.962Z,4.05
2023-03-12T00:44:06.998Z,3.83
2023-03-12T00:46:39.168Z,3.38
2023-03-12T00:49:09.616Z,3.83
2023-03-12T00:51:36.764Z,5.00
2023-03-12T00:54:06.753Z,5.20
2023-03-12T00:56:38.204Z,4.60
2023-03-12T00:59:10.502Z,4.35
2023-03-12T01:01:43.549Z,4.32
2023-03-12T01:04:17.801Z,5.25
2023-03-12T01:06:45.370Z,4.20
2023-03-12T01:09:14.951Z,5.03
2023-03-12T01:11:46.704Z,5.35
2023-03-12T01:14:15.989Z,5.78
2023-03-12T01:16:43.284Z,4.93
2023-03-12T01:19:29.327Z,4.63
2023-03-12T01:21:59.704Z,4.28
2023-03-12T01:24:30.727Z,4.10
2023-03-12T01:26:58.760Z,4.22
2023-03-12T01:29:40.825Z,4.65
2023-03-12T01:32:08.744Z,4.43
2023-03-12T01:34:36.450Z,5.13
2023-03-12T01:37:12.372Z,4.50
2023-03-12T01:39:44.429Z,5.05
2023-03-12T01:42:14.479Z,5.50
2023-03-12T01:44:59.951Z,5.10
2023-03-12T01:47:28.757Z,5.95
2023-03-12T01:49:56.339Z,4.32
2023-03-12T01:52:48.879Z,4.28
2023-03-12T01:55:20.060Z,4.60
2023-03-12T02:00:45.343Z,4.60
2023-03-12T02:03:15.435Z,5.28
2023-03-12T02:05:57.741Z,4.65
2023-03-12T02:08:30.761Z,4.85
2023-03-12T02:10:58.070Z,4.65
2023-03-12T02:13:32.690Z,5.40
2023-03-12T02:16:08.469Z,5.38
2023-03-12T02:18:39.340Z,6.53
2023-03-12T02:21:21.709Z,5.55
2023-03-12T02:24:12.533Z,5.75
2023-03-12T02:26:40.839Z,5.50
2023-03-12T02:31:44.473Z,5.60
2023-03-12T02:34:20.185Z,6.47
2023-03-12T02:36:57.675Z,5.97
2023-03-12T02:39:25.124Z,5.35
2023-03-12T02:41:57.135Z,5.97
2023-03-12T02:44:33.590Z,6.28
2023-03-12T02:47:07.721Z,4.95
2023-03-12T02:49:36.299Z,5.53
2023-03-12T02:52:04.395Z,5.78
2023-03-12T02:54:37.697Z,4.85
2023-03-12T02:57:09.247Z,5.38
2023-03-12T02:59:36.474Z,4.97
2023-03-12T03:02:07.552Z,5.18
2023-03-12T03:04:50.920Z,5.88
2023-03-12T03:07:18.499Z,5.00
2023-03-12T03:09:53.465Z,5.90
2023-03-12T03:12:23.232Z,5.28
2023-03-12T03:15:00.656Z,4.65
2023-03-12T03:17:29.164Z,4.95
2023-03-12T03:19:56.967Z,4.55
2023-03-12T03:22:26.672Z,4.78
2023-03-12T03:24:58.271Z,4.55
2023-03-12T03:27:31.775Z,4.05
2023-03-12T03:30:02.494Z,4.35
2023-03-12T03:32:32.388Z,4.82
2023-03-12T03:35:17.264Z,5.10
2023-03-12T03:37:47.048Z,4.13
2023-03-12T03:40:21.611Z,3.72
2023-03-12T03:42:52.034Z,3.88
2023-03-12T03:45:28.360Z,4.15
2023-03-12T03:47:56.234Z,3.72
2023-03-12T03:50:36.663Z,4.20
2023-03-12T03:53:14.009Z,4.50
2023-03-12T03:55:43.424Z,3.70
2023-03-12T03:58:10.883Z,4.22
2023-03-12T04:00:40.842Z,3.55
2023-03-12T04:03:08.438Z,3.90
2023-03-12T04:05:36.252Z,3.45
2023-03-12T04:08:04.155Z,3.20
2023-03-12T04:10:31.769Z,4.15
2023-03-12T04:12:59.873Z,3.50
2023-03-12T04:15:27.744Z,3.42
2023-03-12T04:18:03.450Z,3.65
2023-03-12T04:20:30.912Z,3.40
2023-03-12T04:23:25.620Z,3.33
2023-03-12T04:25:49.581Z,3.78
2023-03-12T04:28:17.434Z,3.35
2023-03-12T04:30:44.628Z,4.00
2023-03-12T04:33:11.775Z,4.18
2023-03-12T04:35:54.734Z,4.00
2023-03-12T04:38:24.176Z,3.40
2023-03-12T04:41:13.177Z,3.35
2023-03-12T04:43:41.412Z,3.50
2023-03-12T04:46:11.665Z,3.20
2023-03-12T04:48:39.867Z,2.90
2023-03-12T04:51:07.539Z,3.35
2023-03-12T04:53:34.566Z,3.17
2023-03-12T04:56:02.794Z,3.20
2023-03-12T05:01:00.750Z,2.95
2023-03-12T05:03:30.508Z,2.75
2023-03-12T05:05:58.218Z,2.85
2023-03-12T05:08:26.113Z,3.00
2023-03-12T05:10:53.361Z,2.72
2023-03-12T05:13:29.191Z,3.03
2023-03-12T05:15:56.695Z,2.85
2023-03-12T05:18:26.664Z,3.20
2023-03-12T05:21:01.816Z,3.28
2023-03-12T05:23:30.182Z,3.33
2023-03-12T05:25:59.159Z,3.17
2023-03-12T05:28:28.960Z,3.70
2023-03-12T05:30:58.588Z,2.53
2023-03-12T05:33:28.106Z,3.22
2023-03-12T05:35:55.770Z,3.38
2023-03-12T05:38:23.606Z,3.47
2023-03-12T05:40:59.542Z,4.18
2023-03-12T05:43:27.498Z,3.35
2023-03-12T05:45:58.240Z,3.70
2023-03-12T05:48:27.256Z,3.53
2023-03-12T05:50:54.870Z,3.10
2023-03-12T05:53:23.188Z,3.00
2023-03-12T05:55:50.884Z,3.25
2023-03-12T05:58:19.203Z,3.30
2023-03-12T06:04:01.918Z,3.30
2023-03-12T06:06:33.729Z,3.60
2023-03-12T06:09:06.011Z,3.40
2023-03-12T06:11:40.439Z,2.50
2023-03-12T06:14:12.489Z,2.80
2023-03-12T06:16:50.954Z,2.78
2023-03-12T06:19:22.703Z,3.33
2023-03-12T06:21:54.792Z,3.55
2023-03-12T06:24:27.240Z,4.20
2023-03-12T06:26:56.879Z,3.85
2023-03-12T06:29:30.835Z,4.05
2023-03-12T06:32:00.002Z,4.15
2023-03-12T06:34:27.983Z,3.30
2023-03-12T06:36:55.449Z,2.72
2023-03-12T06:39:24.533Z,2.50
2023-03-12T06:42:04.254Z,1.90
2023-03-12T06:44:34.639Z,2.28
2023-03-12T06:47:09.369Z,2.55
2023-03-12T06:49:47.636Z,2.75
2023-03-12T06:52:23.764Z,2.75
2023-03-12T06:54:54.483Z,2.65
2023-03-12T06:57:22.144Z,3.03
2023-03-12T06:59:52.829Z,3.35
2023-03-12T07:04:48.424Z,3.00
2023-03-12T07:07:17.126Z,3.00
2023-03-12T07:09:47.605Z,3.10
2023-03-12T07:12:20.949Z,3.35
2023-03-12T07:14:50.901Z,3.65
2023-03-12T07:17:24.699Z,3.75
2023-03-12T07:19:55.472Z,3.95
2023-03-12T07:22:25.951Z,3.42
2023-03-12T07:24:53.862Z,3.33
2023-03-12T07:27:23.635Z,3.80
2023-03-12T07:30:06.580Z,3.83
2023-03-12T07:32:41.966Z,3.60
2023-03-12T07:35:09.972Z,4.05
2023-03-12T07:37:43.505Z,3.67
2023-03-12T07:40:17.225Z,4.10
2023-03-12T07:42:52.301Z,3.10
2023-03-12T07:45:25.642Z,3.75
2023-03-12T07:47:53.245Z,3.30
2023-03-12T07:50:25.753Z,3.67
2023-03-12T07:52:55.686Z,3.97
2023-03-12T07:55:25.327Z,3.78
2023-03-12T07:57:53.802Z,3.30
2023-03-12T08:00:21.882Z,3.40
2023-03-12T08:02:50.196Z,2.97
2023-03-12T08:05:17.832Z,3.90
2023-03-12T08:07:45.615Z,3.40
2023-03-12T08:10:31.055Z,2.60
2023-03-12T08:13:04.490Z,2.83
2023-03-12T08:15:32.036Z,2.25
2023-03-12T08:17:59.580Z,2.03
2023-03-12T08:20:26.921Z,1.70
2023-03-12T08:22:54.660Z,1.90
2023-03-12T08:25:25.053Z,1.67
2023-03-12T08:27:54.635Z,1.85
2023-03-12T08:30:22.149Z,1.92
2023-03-12T08:32:49.327Z,1.52
2023-03-12T08:35:19.849Z,1.48
2023-03-12T08:40:20.629Z,1.13
2023-03-12T08:42:47.706Z,1.25
2023-03-12T08:45:16.198Z,1.40
2023-03-12T08:47:44.583Z,1.00
2023-03-12T08:50:13.747Z,1.15
2023-03-12T08:52:40.756Z,0.88
2023-03-12T08:55:11.783Z,1.08
2023-03-12T08:57:40.091Z,1.20
2023-03-12T09:00:15.127Z,1.30
2023-03-12T09:02:47.104Z,1.20
2023-03-12T09:05:16.665Z,1.25
2023-03-12T09:07:43.738Z,1.58
2023-03-12T09:10:11.320Z,1.10
2023-03-12T09:12:42.037Z,1.17
2023-03-12T09:17:38.397Z,1.13
2023-03-12T09:20:26.934Z,1.65
2023-03-12T09:22:54.083Z,1.58
2023-03-12T09:25:23.417Z,1.50
2023-03-12T09:27:53.059Z,1.02
2023-03-12T09:30:32.302Z,1.98
2023-03-12T09:32:59.500Z,1.60
2023-03-12T09:35:27.110Z,1.25
2023-03-12T09:38:03.367Z,1.40
2023-03-12T09:40:37.610Z,1.63
2023-03-12T09:43:25.055Z,1.38
2023-03-12T09:45:53.065Z,1.27
2023-03-12T09:48:34.435Z,1.20
2023-03-12T09:51:29.202Z,1.05
2023-03-12T09:53:59.219Z,1.88
2023-03-12T09:56:27.621Z,1.95
2023-03-12T09:58:58.966Z,1.45
2023-03-12T10:01:44.448Z,1.73
2023-03-12T10:07:40.614Z,1.02
2023-03-12T10:10:32.088Z,1.50
2023-03-12T10:13:10.757Z,1.45
2023-03-12T10:15:47.687Z,1.73
2023-03-12T10:21:18.333Z,1.40
2023-03-12T10:24:18.153Z,1.73
2023-03-12T10:26:55.600Z,1.52
2023-03-12T10:29:29.998Z,1.58
2023-03-12T10:32:24.778Z,1.60
2023-03-12T10:34:54.348Z,2.03
2023-03-12T10:37:42.700Z,2.08
2023-03-12T10:40:19.959Z,1.50
2023-03-12T10:42:49.053Z,1.30
2023-03-12T10:45:35.492Z,0.98
2023-03-12T10:48:08.973Z,1.10
2023-03-12T10:50:41.468Z,1.17
2023-03-12T10:53:22.995Z,1.20
2023-03-12T11:01:38.113Z,1.00
2023-03-12T11:04:19.222Z,1.30
2023-03-12T11:07:18.068Z,1.10
2023-03-12T11:10:14.177Z,1.23
2023-03-12T11:13:05.142Z,1.10
2023-03-12T11:15:40.754Z,1.30
2023-03-12T11:18:36.392Z,1.10
2023-03-12T11:21:15.016Z,1.10
2023-03-12T11:24:04.492Z,1.10
2023-03-12T11:27:21.197Z,0.90
2023-03-12T11:29:51.085Z,1.08
2023-03-12T11:32:52.831Z,0.70
2023-03-12T11:35:50.990Z,0.70
2023-03-12T11:38:43.258Z,0.77
2023-03-12T11:41:28.374Z,0.65
2023-03-12T11:44:24.890Z,0.65
2023-03-12T11:47:22.560Z,0.32
2023-03-12T11:50:15.715Z,0.43
2023-03-12T11:53:10.917Z,0.20
2023-03-12T11:56:02.908Z,0.40
2023-03-12T11:58:49.262Z,0.25
2023-03-12T12:01:35.372Z,0.10
2023-03-12T12:04:42.115Z,0.20
2023-03-12T12:07:35.087Z,0.43
2023-03-12T12:10:11.254Z,0.20
2023-03-12T12:12:44.446Z,0.40
2023-03-12T12:15:39.229Z,0.20
2023-03-12T12:18:44.902Z,0.13
2023-03-12T12:21:39.265Z,0.40
2023-03-12T12:24:27.200Z,0.20
2023-03-12T12:27:01.514Z,0.10
2023-03-12T12:32:56.368Z,0.10
2023-03-12T12:36:06.739Z,0.20
2023-03-12T12:38:49.150Z,0.20
2023-03-12T12:41:36.013Z,0.30
2023-03-12T12:44:19.901Z,0.20
2023-03-12T12:47:05.836Z,0.25
2023-03-12T12:50:04.723Z,0.13
2023-03-12T12:52:35.362Z,0.38
2023-03-12T12:55:34.979Z,0.38
2023-03-12T12:58:30.712Z,0.30
2023-03-12T13:01:22.094Z,0.13
2023-03-12T13:04:33.758Z,0.20
2023-03-12T13:07:18.196Z,0.30
2023-03-12T13:10:12.545Z,0.40
2023-03-12T13:13:36.584Z,0.22
2023-03-12T13:16:40.076Z,0.38
2023-03-12T13:22:11.399Z,0.30
2023-03-12T13:25:00.206Z,0.10
2023-03-12T13:27:47.698Z,0.13
2023-03-12T13:30:35.084Z,0.45
2023-03-12T13:33:43.045Z,0.08
2023-03-12T13:36:16.810Z,0.10
2023-03-12T13:39:30.067Z,0.00
2023-03-12T13:42:22.630Z,0.00
2023-03-12T13:45:02.874Z,0.10
2023-03-12T13:47:41.016Z,0.20
2023-03-12T13:50:24.506Z,0.13
2023-03-12T13:53:18.199Z,0.20
2023-03-12T13:56:08.420Z,0.10
2023-03-12T13:59:19.998Z,0.08
2023-03-12T14:01:52.591Z,0.30
2023-03-12T14:05:04.507Z,0.10
2023-03-12T14:11:19.474Z,0.10
2023-03-12T14:14:16.512Z,0.10
2023-03-12T14:17:05.531Z,0.45
2023-03-12T14:19:37.002Z,0.30
2023-03-12T14:22:17.113Z,0.15
2023-03-12T14:24:57.786Z,0.32
2023-03-12T14:27:33.016Z,0.15
2023-03-12T14:30:11.675Z,0.10
2023-03-12T14:33:15.913Z,0.10
2023-03-12T14:36:20.142Z,0.05
2023-03-12T14:39:01.425Z,0.10
2023-03-12T14:47:30.690Z,0.17
2023-03-12T14:49:59.012Z,0.35
2023-03-12T14:52:38.506Z,0.10
2023-03-12T14:55:31.781Z,0.10
2023-03-12T14:58:54.605Z,0.00
2023-03-12T15:01:48.278Z,0.05
2023-03-12T15:04:28.270Z,0.30
2023-03-12T15:07:16.215Z,0.00
2023-03-12T15:10:04.821Z,0.43
2023-03-12T15:13:11.619Z,0.13
2023-03-12T15:15:57.323Z,0.30
2023-03-12T15:18:53.829Z,0.10
2023-03-12T15:21:22.177Z,0.20
2023-03-12T15:24:07.540Z,0.10
2023-03-12T15:26:47.276Z,0.15
2023-03-12T15:31:53.351Z,0.10
2023-03-12T15:34:41.921Z,0.10
2023-03-12T15:37:48.480Z,0.10
2023-03-12T15:41:00.552Z,0.15
2023-03-12T15:43:57.022Z,0.35
2023-03-12T15:46:29.385Z,0.10
2023-03-12T15:49:10.106Z,0.30
2023-03-12T15:55:20.041Z,0.20
2023-03-12T15:58:10.941Z,0.10
2023-03-12T16:00:53.121Z,0.20
2023-03-12T16:03:23.370Z,1.17
2023-03-12T16:05:51.497Z,0.22
2023-03-12T16:08:42.463Z,0.10
2023-03-12T16:11:43.024Z,0.57
2023-03-12T16:14:30.713Z,0.00
2023-03-12T16:23:12.872Z,0.20
2023-03-12T16:26:02.057Z,0.40
2023-03-12T16:28:29.467Z,0.40
2023-03-12T16:31:01.021Z,0.50
2023-03-12T16:33:35.974Z,0.30
2023-03-12T16:38:58.298Z,0.35
2023-03-12T16:41:39.364Z,0.63
2023-03-12T16:44:17.192Z,0.40
2023-03-12T16:46:46.067Z,0.65
2023-03-12T16:49:19.660Z,0.30
2023-03-12T16:51:47.962Z,0.30
2023-03-12T16:54:15.521Z,0.55
2023-03-12T16:56:50.523Z,0.40
2023-03-12T16:59:28.135Z,0.70
2023-03-12T17:02:00.399Z,0.80
2023-03-12T17:04:27.919Z,1.08
2023-03-12T17:06:55.527Z,0.60
2023-03-12T17:09:23.964Z,0.60
2023-03-12T17:11:52.366Z,0.50
2023-03-12T17:14:22.872Z,0.52
2023-03-12T17:16:53.529Z,0.45
2023-03-12T17:21:53.886Z,0.63
2023-03-12T17:24:28.226Z,0.40
2023-03-12T17:26:58.957Z,0.90
2023-03-12T17:29:33.864Z,0.55
2023-03-12T17:32:04.093Z,0.60
2023-03-12T17:37:01.768Z,0.73
2023-03-12T17:44:51.192Z,0.52
2023-03-12T17:47:31.387Z,0.60
2023-03-12T17:49:58.975Z,0.55
2023-03-12T17:52:28.754Z,0.40
2023-03-12T17:55:02.117Z,0.70
2023-03-12T17:57:31.534Z,0.80
2023-03-12T18:00:10.204Z,0.93
2023-03-12T18:02:44.970Z,0.90
2023-03-12T18:05:12.940Z,0.85
2023-03-12T18:07:56.036Z,0.32
2023-03-12T18:13:35.022Z,0.52
2023-03-12T18:16:13.112Z,0.60
2023-03-12T18:18:41.273Z,0.40
2023-03-12T18:21:09.114Z,1.00
2023-03-12T18:23:39.122Z,0.60
2023-03-12T18:26:08.849Z,0.70
2023-03-12T18:28:39.234Z,0.50
2023-03-12T18:33:54.279Z,0.40
2023-03-12T18:36:31.868Z,0.40
2023-03-12T18:39:27.670Z,0.55
2023-03-12T18:42:00.507Z,0.40
2023-03-12T18:44:28.634Z,0.50
2023-03-12T18:46:58.843Z,0.50
2023-03-12T18:49:32.395Z,0.65
2023-03-12T18:52:15.191Z,0.50
2023-03-12T18:54:46.972Z,0.80
2023-03-12T18:57:19.811Z,0.38
2023-03-12T18:59:59.602Z,0.75
2023-03-12T19:02:55.402Z,1.02
2023-03-12T19:05:33.483Z,1.10
2023-03-12T19:08:06.979Z,0.73
2023-03-12T19:10:46.196Z,0.52
2023-03-12T19:13:22.934Z,0.32
2023-03-12T19:15:50.281Z,0.60
2023-03-12T19:18:20.548Z,0.55
2023-03-12T19:20:48.526Z,0.32
2023-03-12T19:23:19.278Z,0.38
2023-03-12T19:25:54.203Z,0.43
2023-03-12T19:28:23.907Z,0.50
2023-03-12T19:31:10.870Z,0.57
2023-03-12T19:33:38.623Z,0.40
2023-03-12T19:36:27.599Z,0.47
2023-03-12T19:41:42.209Z,0.30
2023-03-12T19:44:11.822Z,0.25
2023-03-12T19:46:45.950Z,0.55
2023-03-12T19:49:21.790Z,0.50
2023-03-12T19:51:51.737Z,0.25
2023-03-12T19:54:21.816Z,0.50
2023-03-12T19:56:52.665Z,0.40
2023-03-12T19:59:20.064Z,0.40
2023-03-12T20:01:55.848Z,0.32
2023-03-12T20:04:23.322Z,0.30
2023-03-12T20:06:50.390Z,0.35
2023-03-12T20:09:17.926Z,0.30
2023-03-12T20:11:45.316Z,0.45
2023-03-12T20:14:12.544Z,0.43
2023-03-12T20:16:39.979Z,0.30
2023-03-12T20:19:07.179Z,0.28
2023-03-12T20:21:36.437Z,0.20
2023-03-12T20:24:07.480Z,0.52
2023-03-12T20:26:34.651Z,0.32
2023-03-12T20:29:07.116Z,0.30
2023-03-12T20:31:36.993Z,0.30
2023-03-12T20:34:04.718Z,0.20
2023-03-12T20:36:31.926Z,0.22
2023-03-12T20:39:01.872Z,0.45
2023-03-12T20:41:30.944Z,0.30
2023-03-12T20:43:58.241Z,0.43
2023-03-12T20:46:26.968Z,0.17
2023-03-12T20:48:56.624Z,0.17
2023-03-12T20:51:29.134Z,0.32
2023-03-12T20:53:58.697Z,0.52
2023-03-12T20:56:36.288Z,0.25
2023-03-12T20:59:03.740Z,0.38
2023-03-12T21:01:31.214Z,0.50
2023-03-12T21:04:02.258Z,0.60
2023-03-12T21:06:34.401Z,0.40
2023-03-12T21:09:07.127Z,0.30
2023-03-12T21:11:35.027Z,0.30
2023-03-12T21:14:05.568Z,0.52
2023-03-12T21:16:36.110Z,0.40
2023-03-12T21:19:06.518Z,0.30
2023-03-12T21:21:36.485Z,0.35
2023-03-12T21:24:08.195Z,0.60
2023-03-12T21:26:51.615Z,0.40
2023-03-12T21:29:27.642Z,0.22
2023-03-12T21:34:40.192Z,0.38
2023-03-12T21:37:10.535Z,0.55
2023-03-12T21:39:43.631Z,0.20
2023-03-12T21:42:24.406Z,0.30
2023-03-12T21:45:01.889Z,0.47
2023-03-12T21:47:39.706Z,0.30
2023-03-12T21:50:08.800Z,0.55
2023-03-12T21:52:58.370Z,0.40
2023-03-12T21:55:31.085Z,0.30
2023-03-12T21:57:59.723Z,0.70
2023-03-12T22:00:29.387Z,0.50
2023-03-12T22:03:00.057Z,0.50
2023-03-12T22:05:27.932Z,0.50
2023-03-12T22:07:58.248Z,0.50
2023-03-12T22:10:32.486Z,0.60
2023-03-12T22:13:05.365Z,0.60
2023-03-12T22:15:40.091Z,0.90
2023-03-12T22:18:07.349Z,0.70
2023-03-12T22:20:34.715Z,0.90
2023-03-12T22:23:08.065Z,0.88
2023-03-12T22:25:37.479Z,0.77
2023-03-12T22:28:04.949Z,0.57
2023-03-12T22:30:31.997Z,0.50
2023-03-12T22:33:05.992Z,0.80
2023-03-12T22:35:36.339Z,0.40
2023-03-12T22:38:22.459Z,0.55
2023-03-12T22:40:55.521Z,0.70
2023-03-12T22:43:30.236Z,0.60
2023-03-12T22:46:00.133Z,0.47
2023-03-12T22:48:28.313Z,0.13
2023-03-12T22:51:09.408Z,0.20
2023-03-12T22:53:39.710Z,0.40
2023-03-12T22:56:20.479Z,0.30
2023-03-12T22:58:49.075Z,0.95
2023-03-12T23:01:21.468Z,1.38
2023-03-12T23:03:49.603Z,1.13
2023-03-12T23:06:26.583Z,0.90
2023-03-12T23:09:23.126Z,1.30
2023-03-12T23:11:56.846Z,0.70
2023-03-12T23:14:30.156Z,0.80
2023-03-12T23:17:08.496Z,0.77
2023-03-12T23:19:47.039Z,1.20
2023-03-12T23:22:18.926Z,0.93
2023-03-12T23:24:48.488Z,0.80
2023-03-12T23:27:15.919Z,0.90
2023-03-12T23:29:54.676Z,0.60
2023-03-12T23:32:35.298Z,0.93
2023-03-12T23:35:02.447Z,0.75
2023-03-12T23:37:39.282Z,0.57
2023-03-12T23:40:18.531Z,0.88
2023-03-12T23:42:48.968Z,0.85
2023-03-12T23:48:12.158Z,0.75
2023-03-12T23:50:45.969Z,0.40
2023-03-12T23:53:13.437Z,0.77
2023-03-12T23:55:46.057Z,0.60
2023-03-12T23:58:16.695Z,0.82
